createdAt,value
2022-11-28T00:01:36.887Z,1.24
2022-11-28T00:04:09.431Z,1.28
2022-11-28T00:06:39.252Z,1.30
2022-11-28T00:09:09.437Z,1.15
2022-11-28T00:11:37.301Z,1.13
2022-11-28T00:14:05.173Z,1.23
2022-11-28T00:16:33.093Z,1.22
2022-11-28T00:19:01.965Z,1.27
2022-11-28T00:21:31.380Z,2.16
2022-11-28T00:24:00.662Z,3.14
2022-11-28T00:26:30.717Z,3.50
2022-11-28T00:28:59.511Z,3.96
2022-11-28T00:31:29.961Z,4.23
2022-11-28T00:33:58.230Z,4.16
2022-11-28T00:36:26.276Z,4.15
2022-11-28T00:38:55.697Z,4.10
2022-11-28T00:41:25.529Z,4.27
2022-11-28T00:43:53.703Z,4.09
2022-11-28T00:46:23.071Z,4.14
2022-11-28T00:48:51.425Z,3.88
2022-11-28T00:51:21.801Z,4.11
2022-11-28T00:53:51.962Z,3.95
2022-11-28T00:56:24.185Z,3.93
2022-11-28T00:58:52.532Z,3.97
2022-11-28T01:01:22.341Z,3.97
2022-11-28T01:03:52.091Z,3.98
2022-11-28T01:06:23.973Z,3.87
2022-11-28T01:08:52.235Z,3.82
2022-11-28T01:11:22.186Z,3.92
2022-11-28T01:13:50.831Z,3.71
2022-11-28T01:16:18.804Z,3.59
2022-11-28T01:18:46.739Z,3.42
2022-11-28T01:21:15.060Z,3.46
2022-11-28T01:23:42.931Z,3.53
2022-11-28T01:26:12.661Z,3.53
2022-11-28T01:28:41.886Z,3.52
2022-11-28T01:31:12.703Z,3.56
2022-11-28T01:33:40.757Z,3.66
2022-11-28T01:36:09.138Z,3.75
2022-11-28T01:38:36.886Z,3.70
2022-11-28T01:41:05.182Z,3.65
2022-11-28T01:43:33.367Z,3.71
2022-11-28T01:46:03.477Z,3.80
2022-11-28T01:48:35.370Z,3.85
2022-11-28T01:51:06.670Z,3.64
2022-11-28T01:53:37.456Z,3.73
2022-11-28T01:56:09.730Z,3.59
2022-11-28T01:58:42.048Z,3.78
2022-11-28T02:01:12.378Z,2.57
2022-11-28T02:03:44.450Z,2.64
2022-11-28T02:06:14.119Z,2.63
2022-11-28T02:08:41.988Z,2.62
2022-11-28T02:11:33.206Z,3.29
2022-11-28T02:14:10.416Z,3.70
2022-11-28T02:16:54.063Z,3.67
2022-11-28T02:20:00.317Z,3.57
2022-11-28T02:22:35.855Z,3.92
2022-11-28T02:25:27.526Z,3.80
2022-11-28T02:28:30.756Z,3.99
2022-11-28T02:31:11.586Z,3.99
2022-11-28T02:33:44.762Z,4.05
2022-11-28T02:36:18.161Z,4.16
2022-11-28T02:39:03.711Z,4.06
2022-11-28T02:41:35.834Z,4.01
2022-11-28T02:44:12.721Z,3.91
2022-11-28T02:46:49.837Z,4.01
2022-11-28T02:49:23.649Z,4.03
2022-11-28T02:51:55.603Z,3.99
2022-11-28T02:54:26.451Z,3.92
2022-11-28T02:56:55.790Z,3.87
2022-11-28T02:59:33.438Z,3.66
2022-11-28T03:02:02.562Z,3.86
2022-11-28T03:04:44.014Z,3.78
2022-11-28T03:07:28.040Z,4.02
2022-11-28T03:10:06.485Z,3.80
2022-11-28T03:12:46.717Z,3.91
2022-11-28T03:15:18.955Z,3.89
2022-11-28T03:17:56.190Z,3.99
2022-11-28T03:20:32.575Z,3.87
2022-11-28T03:23:10.724Z,3.71
2022-11-28T03:25:47.324Z,3.81
2022-11-28T03:28:24.187Z,3.89
2022-11-28T03:30:56.932Z,3.93
2022-11-28T03:33:26.766Z,3.82
2022-11-28T03:36:02.505Z,3.81
2022-11-28T03:38:35.864Z,3.79
2022-11-28T03:41:09.843Z,3.68
2022-11-28T03:43:43.045Z,3.61
2022-11-28T03:46:16.903Z,3.25
2022-11-28T03:48:47.985Z,3.25
2022-11-28T03:51:19.747Z,3.17
2022-11-28T03:53:53.352Z,3.25
2022-11-28T03:56:26.104Z,3.32
2022-11-28T03:58:59.113Z,3.18
2022-11-28T04:01:33.355Z,3.09
2022-11-28T04:04:10.999Z,3.13
2022-11-28T04:06:52.186Z,3.48
2022-11-28T04:09:28.682Z,3.54
2022-11-28T04:12:01.216Z,3.32
2022-11-28T04:14:36.837Z,3.30
2022-11-28T04:17:11.014Z,3.37
2022-11-28T04:19:43.609Z,3.23
2022-11-28T04:22:18.033Z,2.94
2022-11-28T04:24:50.651Z,3.38
2022-11-28T04:27:23.332Z,3.64
2022-11-28T04:29:55.390Z,3.11
2022-11-28T04:32:24.942Z,3.53
2022-11-28T04:34:58.865Z,3.55
2022-11-28T04:37:29.413Z,3.61
2022-11-28T04:39:57.828Z,3.09
2022-11-28T04:42:31.304Z,3.45
2022-11-28T04:45:04.222Z,3.53
2022-11-28T04:47:32.111Z,3.26
2022-11-28T04:50:00.197Z,3.27
2022-11-28T04:52:36.377Z,3.42
2022-11-28T04:55:11.150Z,3.54
2022-11-28T04:57:41.278Z,3.50
2022-11-28T05:00:12.486Z,3.11
2022-11-28T05:02:42.399Z,3.37
2022-11-28T05:05:12.830Z,3.25
2022-11-28T05:07:41.951Z,2.44
2022-11-28T05:10:12.410Z,2.03
2022-11-28T05:12:40.244Z,2.13
2022-11-28T05:15:09.251Z,1.67
2022-11-28T05:17:41.908Z,1.45
2022-11-28T05:20:12.205Z,1.30
2022-11-28T05:22:39.975Z,1.36
2022-11-28T05:25:10.021Z,1.16
2022-11-28T05:27:37.817Z,1.55
2022-11-28T05:30:07.639Z,1.56
2022-11-28T05:32:36.418Z,1.84
2022-11-28T05:35:05.189Z,2.33
2022-11-28T05:37:33.064Z,2.16
2022-11-28T05:40:01.035Z,1.99
2022-11-28T05:42:33.305Z,2.44
2022-11-28T05:45:01.092Z,2.22
2022-11-28T05:47:31.415Z,2.60
2022-11-28T05:49:59.211Z,2.25
2022-11-28T05:52:29.536Z,2.85
2022-11-28T05:54:57.338Z,3.48
2022-11-28T05:57:25.175Z,3.39
2022-11-28T05:59:54.360Z,3.58
2022-11-28T06:02:22.242Z,3.38
2022-11-28T06:04:50.178Z,3.90
2022-11-28T06:07:18.780Z,3.70
2022-11-28T06:09:46.832Z,3.59
2022-11-28T06:12:14.717Z,3.84
2022-11-28T06:14:42.555Z,4.07
2022-11-28T06:17:11.659Z,4.21
2022-11-28T06:19:39.541Z,4.15
2022-11-28T06:22:07.482Z,3.94
2022-11-28T06:24:35.330Z,3.52
2022-11-28T06:27:03.193Z,3.57
2022-11-28T06:29:31.369Z,3.43
2022-11-28T06:32:05.909Z,3.26
2022-11-28T06:34:35.510Z,3.54
2022-11-28T06:37:05.943Z,3.55
2022-11-28T06:39:33.815Z,3.46
2022-11-28T06:42:01.733Z,3.67
2022-11-28T06:44:29.729Z,3.95
2022-11-28T06:46:57.788Z,3.75
2022-11-28T06:49:25.785Z,3.55
2022-11-28T06:51:55.075Z,3.64
2022-11-28T06:54:23.566Z,3.54
2022-11-28T06:56:51.694Z,3.22
2022-11-28T06:59:19.516Z,2.95
2022-11-28T07:01:47.432Z,2.78
2022-11-28T07:04:15.704Z,3.26
2022-11-28T07:06:44.747Z,3.70
2022-11-28T07:09:14.366Z,3.69
2022-11-28T07:11:43.478Z,3.81
2022-11-28T07:14:12.061Z,3.87
2022-11-28T07:16:40.794Z,3.75
2022-11-28T07:19:08.913Z,3.99
2022-11-28T07:21:36.805Z,4.19
2022-11-28T07:24:04.818Z,3.95
2022-11-28T07:26:34.283Z,4.14
2022-11-28T07:29:02.424Z,3.78
2022-11-28T07:31:38.274Z,4.00
2022-11-28T07:34:06.082Z,4.16
2022-11-28T07:36:33.949Z,4.21
2022-11-28T07:39:03.018Z,4.07
2022-11-28T07:41:30.862Z,4.22
2022-11-28T07:44:02.843Z,4.34
2022-11-28T07:46:32.403Z,4.28
2022-11-28T07:49:00.634Z,4.36
2022-11-28T07:51:30.204Z,4.33
2022-11-28T07:53:58.374Z,4.35
2022-11-28T07:56:39.414Z,4.46
2022-11-28T07:59:18.606Z,4.41
2022-11-28T08:01:46.672Z,4.52
2022-11-28T08:04:14.553Z,4.52
2022-11-28T08:06:44.353Z,4.06
2022-11-28T08:09:13.026Z,3.82
2022-11-28T08:11:41.804Z,4.08
2022-11-28T08:14:09.993Z,4.27
2022-11-28T08:16:41.338Z,4.58
2022-11-28T08:19:09.424Z,3.93
2022-11-28T08:21:38.488Z,3.78
2022-11-28T08:24:08.008Z,3.92
2022-11-28T08:26:37.554Z,4.18
2022-11-28T08:29:06.451Z,4.45
2022-11-28T08:31:36.571Z,5.13
2022-11-28T08:34:07.636Z,5.52
2022-11-28T08:36:35.836Z,5.84
2022-11-28T08:41:53.494Z,5.63
2022-11-28T08:44:21.352Z,5.83
2022-11-28T08:46:49.215Z,6.33
2022-11-28T08:49:18.550Z,6.18
2022-11-28T08:51:47.475Z,6.06
2022-11-28T08:54:15.277Z,5.98
2022-11-28T08:56:46.276Z,6.05
2022-11-28T08:59:14.117Z,5.91
2022-11-28T09:01:41.981Z,5.13
2022-11-28T09:04:09.908Z,5.33
2022-11-28T09:06:41.012Z,5.44
2022-11-28T09:09:09.155Z,5.50
2022-11-28T09:11:36.990Z,5.54
2022-11-28T09:14:04.853Z,6.16
2022-11-28T09:16:32.815Z,6.66
2022-11-28T09:19:01.123Z,6.75
2022-11-28T09:21:29.811Z,6.02
2022-11-28T09:24:00.162Z,5.45
2022-11-28T09:26:29.873Z,5.96
2022-11-28T09:28:57.842Z,6.37
2022-11-28T09:31:26.109Z,6.29
2022-11-28T09:33:54.748Z,6.30
2022-11-28T09:36:24.702Z,6.42
2022-11-28T09:38:52.883Z,6.80
2022-11-28T09:41:42.626Z,6.81
2022-11-28T09:44:20.104Z,6.96
2022-11-28T09:46:51.046Z,7.14
2022-11-28T09:49:36.809Z,6.70
2022-11-28T09:52:23.130Z,6.13
2022-11-28T09:54:57.882Z,6.77
2022-11-28T09:57:33.015Z,6.94
2022-11-28T10:03:29.753Z,6.62
2022-11-28T10:06:08.377Z,6.73
2022-11-28T10:08:44.992Z,6.94
2022-11-28T10:11:27.615Z,6.94
2022-11-28T10:14:08.907Z,6.97
2022-11-28T10:16:46.753Z,7.16
2022-11-28T10:19:46.088Z,6.70
2022-11-28T10:22:12.939Z,6.26
2022-11-28T10:24:45.571Z,5.64
2022-11-28T10:27:15.619Z,5.36
2022-11-28T10:29:51.408Z,5.18
2022-11-28T10:32:25.645Z,5.05
2022-11-28T10:34:59.980Z,5.08
2022-11-28T10:37:28.996Z,5.03
2022-11-28T10:39:57.663Z,5.08
2022-11-28T10:42:32.694Z,5.10
2022-11-28T10:45:27.070Z,5.24
2022-11-28T10:48:38.605Z,5.30
2022-11-28T10:51:12.410Z,5.27
2022-11-28T10:53:49.116Z,5.24
2022-11-28T10:56:33.242Z,5.43
2022-11-28T10:59:12.099Z,5.47
2022-11-28T11:01:45.962Z,5.57
2022-11-28T11:04:20.746Z,5.74
2022-11-28T11:07:11.244Z,5.73
2022-11-28T11:09:44.107Z,5.83
2022-11-28T11:12:19.997Z,5.93
2022-11-28T11:14:48.655Z,5.92
2022-11-28T11:17:35.475Z,5.99
2022-11-28T11:20:20.184Z,6.10
2022-11-28T11:22:56.209Z,6.17
2022-11-28T11:25:28.158Z,6.31
2022-11-28T11:28:01.895Z,6.35
2022-11-28T11:30:32.522Z,6.45
2022-11-28T11:33:04.969Z,6.54
2022-11-28T11:35:37.072Z,6.60
2022-11-28T11:38:19.908Z,6.59
2022-11-28T11:40:48.363Z,6.77
2022-11-28T11:43:28.773Z,6.74
2022-11-28T11:46:08.017Z,6.81
2022-11-28T11:48:39.156Z,6.91
2022-11-28T11:51:07.869Z,6.92
2022-11-28T11:53:35.725Z,6.93
2022-11-28T11:56:04.716Z,6.97
2022-11-28T11:58:41.567Z,7.07
2022-11-28T12:01:12.328Z,7.04
2022-11-28T12:03:49.671Z,7.12
2022-11-28T12:06:26.642Z,7.17
2022-11-28T12:09:02.691Z,7.12
2022-11-28T12:11:35.274Z,7.18
2022-11-28T12:14:15.452Z,7.07
2022-11-28T12:16:50.258Z,7.22
2022-11-28T12:19:29.773Z,7.25
2022-11-28T12:22:13.134Z,7.24
2022-11-28T12:24:51.954Z,7.27
2022-11-28T12:27:32.001Z,7.24
2022-11-28T12:30:15.677Z,7.31
2022-11-28T12:32:54.828Z,7.22
2022-11-28T12:35:36.510Z,7.28
2022-11-28T12:38:14.848Z,7.19
2022-11-28T12:40:56.424Z,7.26
2022-11-28T12:43:38.967Z,7.24
2022-11-28T12:46:18.318Z,7.26
2022-11-28T12:49:00.963Z,7.24
2022-11-28T12:51:41.074Z,7.18
2022-11-28T12:54:30.941Z,7.09
2022-11-28T12:57:08.280Z,7.16
2022-11-28T12:59:44.088Z,7.12
2022-11-28T13:02:28.264Z,7.18
2022-11-28T13:05:15.896Z,7.11
2022-11-28T13:07:59.608Z,7.05
2022-11-28T13:10:33.045Z,6.96
2022-11-28T13:13:06.926Z,6.94
2022-11-28T13:15:48.890Z,6.96
2022-11-28T13:18:31.392Z,6.96
2022-11-28T13:21:04.873Z,6.97
2022-11-28T13:23:42.621Z,6.99
2022-11-28T13:26:16.643Z,6.94
2022-11-28T13:28:50.225Z,6.94
2022-11-28T13:31:26.503Z,6.97
2022-11-28T13:33:55.922Z,6.97
2022-11-28T13:39:31.919Z,7.01
2022-11-28T13:42:43.930Z,6.98
2022-11-28T13:45:01.698Z,6.93
2022-11-28T13:47:34.911Z,6.92
2022-11-28T13:50:35.397Z,6.92
2022-11-28T13:53:20.021Z,6.91
2022-11-28T13:55:50.426Z,6.86
2022-11-28T13:58:22.577Z,6.84
2022-11-28T14:01:10.323Z,6.72
2022-11-28T14:03:46.964Z,6.72
2022-11-28T14:06:17.148Z,6.66
2022-11-28T14:08:50.102Z,6.69
2022-11-28T14:11:51.513Z,6.65
2022-11-28T14:14:44.672Z,6.58
2022-11-28T14:17:29.736Z,6.53
2022-11-28T14:20:16.512Z,6.48
2022-11-28T14:22:58.380Z,6.47
2022-11-28T14:25:31.552Z,6.41
2022-11-28T14:28:02.631Z,6.35
2022-11-28T14:30:38.227Z,6.31
2022-11-28T14:33:16.964Z,6.29
2022-11-28T14:36:23.268Z,6.23
2022-11-28T14:39:32.997Z,6.24
2022-11-28T14:42:59.613Z,6.20
2022-11-28T14:45:45.556Z,6.19
2022-11-28T14:48:20.088Z,6.15
2022-11-28T14:50:53.489Z,6.07
2022-11-28T14:53:45.624Z,6.03
2022-11-28T14:56:29.076Z,6.05
2022-11-28T14:59:03.495Z,6.06
2022-11-28T15:01:44.173Z,6.06
2022-11-28T15:04:39.576Z,6.01
2022-11-28T15:07:25.078Z,5.97
2022-11-28T15:10:07.416Z,5.99
2022-11-28T15:12:45.645Z,5.97
2022-11-28T15:15:17.012Z,5.94
2022-11-28T15:17:52.401Z,5.92
2022-11-28T15:20:25.884Z,5.90
2022-11-28T15:22:53.840Z,5.86
2022-11-28T15:25:23.747Z,5.86
2022-11-28T15:27:54.208Z,5.87
2022-11-28T15:30:26.248Z,5.85
2022-11-28T15:33:00.804Z,5.87
2022-11-28T15:35:29.528Z,5.88
2022-11-28T15:37:59.365Z,5.83
2022-11-28T15:40:30.415Z,5.83
2022-11-28T15:42:59.799Z,5.83
2022-11-28T15:45:30.123Z,5.81
2022-11-28T15:47:59.930Z,5.85
2022-11-28T15:50:30.237Z,5.85
2022-11-28T15:52:59.496Z,5.80
2022-11-28T15:55:30.308Z,5.83
2022-11-28T15:58:13.405Z,5.84
2022-11-28T16:00:45.115Z,5.82
2022-11-28T16:03:18.796Z,5.75
2022-11-28T16:05:48.239Z,5.77
2022-11-28T16:08:28.460Z,5.74
2022-11-28T16:10:57.052Z,5.72
2022-11-28T16:13:25.515Z,5.74
2022-11-28T16:15:55.997Z,5.73
2022-11-28T16:18:28.614Z,5.73
2022-11-28T16:20:58.087Z,5.77
2022-11-28T16:23:30.589Z,5.77
2022-11-28T16:26:03.560Z,5.82
2022-11-28T16:28:33.523Z,5.88
2022-11-28T16:31:01.579Z,5.85
2022-11-28T16:33:39.068Z,5.78
2022-11-28T16:36:12.694Z,5.79
2022-11-28T16:38:41.159Z,5.76
2022-11-28T16:41:16.315Z,5.76
2022-11-28T16:43:47.357Z,5.74
2022-11-28T16:46:21.156Z,5.75
2022-11-28T16:48:54.668Z,5.76
2022-11-28T16:51:37.407Z,5.72
2022-11-28T16:54:29.039Z,5.71
2022-11-28T16:57:14.517Z,5.70
2022-11-28T16:59:52.702Z,5.66
2022-11-28T17:02:23.465Z,5.65
2022-11-28T17:04:54.506Z,5.59
2022-11-28T17:07:23.507Z,5.59
2022-11-28T17:09:52.217Z,5.63
2022-11-28T17:12:26.344Z,5.58
2022-11-28T17:14:54.794Z,5.60
2022-11-28T17:17:24.675Z,5.62
2022-11-28T17:19:53.835Z,5.64
2022-11-28T17:22:24.509Z,5.58
2022-11-28T17:24:59.091Z,5.52
2022-11-28T17:27:27.167Z,5.43
2022-11-28T17:29:55.183Z,5.38
2022-11-28T17:32:23.041Z,5.34
2022-11-28T17:34:50.931Z,5.33
2022-11-28T17:37:20.179Z,5.30
2022-11-28T17:40:01.947Z,5.30
2022-11-28T17:42:30.035Z,5.20
2022-11-28T17:44:58.288Z,5.30
2022-11-28T17:47:27.553Z,5.32
2022-11-28T17:49:56.517Z,5.35
2022-11-28T17:52:30.347Z,5.41
2022-11-28T17:55:07.086Z,5.42
2022-11-28T17:57:35.640Z,5.44
2022-11-28T18:00:08.384Z,5.45
2022-11-28T18:02:42.254Z,5.44
2022-11-28T18:05:10.897Z,5.37
2022-11-28T18:07:41.924Z,5.29
2022-11-28T18:10:12.577Z,5.21
2022-11-28T18:12:40.449Z,5.25
2022-11-28T18:15:10.175Z,5.27
2022-11-28T18:17:38.563Z,5.30
2022-11-28T18:20:07.994Z,5.34
2022-11-28T18:22:35.873Z,5.33
2022-11-28T18:25:05.872Z,5.28
2022-11-28T18:27:33.966Z,5.24
2022-11-28T18:30:01.884Z,5.27
2022-11-28T18:32:29.687Z,5.26
2022-11-28T18:34:58.344Z,5.18
2022-11-28T18:37:28.571Z,5.12
2022-11-28T18:39:56.414Z,5.18
2022-11-28T18:42:25.569Z,5.19
2022-11-28T18:44:53.427Z,5.27
2022-11-28T18:47:21.253Z,5.33
2022-11-28T18:49:49.091Z,5.36
2022-11-28T18:52:17.136Z,5.44
2022-11-28T18:54:44.978Z,5.43
2022-11-28T18:57:13.092Z,5.30
2022-11-28T18:59:46.244Z,5.10
2022-11-28T19:02:19.510Z,5.02
2022-11-28T19:04:48.341Z,5.10
2022-11-28T19:07:16.580Z,5.16
2022-11-28T19:09:45.496Z,5.20
2022-11-28T19:12:14.421Z,5.31
2022-11-28T19:14:43.734Z,5.35
2022-11-28T19:17:12.157Z,5.41
2022-11-28T19:19:41.494Z,5.48
2022-11-28T19:22:09.518Z,5.52
2022-11-28T19:24:37.906Z,5.49
2022-11-28T19:27:10.929Z,5.45
2022-11-28T19:29:44.408Z,5.40
2022-11-28T19:32:12.650Z,5.37
2022-11-28T19:34:40.628Z,5.37
2022-11-28T19:37:08.423Z,5.38
2022-11-28T19:39:36.944Z,5.39
2022-11-28T19:42:04.950Z,5.40
2022-11-28T19:44:33.156Z,5.37
2022-11-28T19:47:02.867Z,5.37
2022-11-28T19:49:30.870Z,5.40
2022-11-28T19:51:58.852Z,5.43
2022-11-28T19:54:26.933Z,5.41
2022-11-28T19:56:56.227Z,5.37
2022-11-28T19:59:24.181Z,5.40
2022-11-28T20:01:53.827Z,5.45
2022-11-28T20:04:24.388Z,5.48
2022-11-28T20:06:52.323Z,5.35
2022-11-28T20:09:20.465Z,5.43
2022-11-28T20:11:48.895Z,5.41
2022-11-28T20:14:18.726Z,5.44
2022-11-28T20:16:47.160Z,5.39
2022-11-28T20:19:17.703Z,5.42
2022-11-28T20:21:47.591Z,5.40
2022-11-28T20:24:16.724Z,5.41
2022-11-28T20:26:46.927Z,5.37
2022-11-28T20:29:17.328Z,5.36
2022-11-28T20:31:48.596Z,5.34
2022-11-28T20:34:18.743Z,5.34
2022-11-28T20:36:54.409Z,5.33
2022-11-28T20:39:22.813Z,5.34
2022-11-28T20:41:50.642Z,5.25
2022-11-28T20:44:18.965Z,5.27
2022-11-28T20:46:49.470Z,5.26
2022-11-28T20:49:17.326Z,5.20
2022-11-28T20:51:45.772Z,5.23
2022-11-28T20:54:15.407Z,5.22
2022-11-28T20:57:18.982Z,5.21
2022-11-28T20:59:32.584Z,5.21
2022-11-28T21:02:00.678Z,5.21
2022-11-28T21:04:28.888Z,5.22
2022-11-28T21:06:56.930Z,5.21
2022-11-28T21:09:26.409Z,5.19
2022-11-28T21:11:59.276Z,5.14
2022-11-28T21:14:29.344Z,5.20
2022-11-28T21:16:57.915Z,5.19
2022-11-28T21:19:25.987Z,5.17
2022-11-28T21:21:54.296Z,5.18
2022-11-28T21:24:22.207Z,5.10
2022-11-28T21:26:54.292Z,5.10
2022-11-28T21:29:24.550Z,5.17
2022-11-28T21:31:53.617Z,5.21
2022-11-28T21:34:22.471Z,5.22
2022-11-28T21:36:50.377Z,5.21
2022-11-28T21:39:21.889Z,5.14
2022-11-28T21:41:52.042Z,5.09
2022-11-28T21:44:20.220Z,5.12
2022-11-28T21:46:48.065Z,5.09
2022-11-28T21:49:15.870Z,5.04
2022-11-28T21:51:43.690Z,5.17
2022-11-28T21:54:12.944Z,5.24
2022-11-28T21:56:41.027Z,5.35
2022-11-28T21:59:10.658Z,5.24
2022-11-28T22:01:40.611Z,5.21
2022-11-28T22:04:10.623Z,5.15
2022-11-28T22:06:39.587Z,5.05
2022-11-28T22:09:09.869Z,5.01
2022-11-28T22:11:40.320Z,5.02
2022-11-28T22:14:08.483Z,5.08
2022-11-28T22:16:38.131Z,5.22
2022-11-28T22:19:06.539Z,5.19
2022-11-28T22:21:54.344Z,5.20
2022-11-28T22:24:24.364Z,5.25
2022-11-28T22:26:52.253Z,5.21
2022-11-28T22:29:20.180Z,5.17
2022-11-28T22:31:51.076Z,5.24
2022-11-28T22:34:19.534Z,5.16
2022-11-28T22:36:47.454Z,5.09
2022-11-28T22:39:15.520Z,5.14
2022-11-28T22:41:43.821Z,5.16
2022-11-28T22:44:12.541Z,5.23
2022-11-28T22:46:40.501Z,5.20
2022-11-28T22:49:16.219Z,5.20
2022-11-28T22:51:44.211Z,5.18
2022-11-28T22:54:14.177Z,5.20
2022-11-28T22:56:42.306Z,5.19
2022-11-28T22:59:13.114Z,5.13
2022-11-28T23:01:43.368Z,5.23
2022-11-28T23:04:12.693Z,5.24
2022-11-28T23:06:40.487Z,5.27
2022-11-28T23:09:09.699Z,5.27
2022-11-28T23:11:39.549Z,5.26
2022-11-28T23:14:09.178Z,5.26
2022-11-28T23:16:38.603Z,5.26
2022-11-28T23:19:10.795Z,5.26
2022-11-28T23:21:42.562Z,5.24
2022-11-28T23:24:13.999Z,5.26
2022-11-28T23:26:41.843Z,5.25
2022-11-28T23:29:10.606Z,5.20
2022-11-28T23:31:41.819Z,5.24
2022-11-28T23:34:10.824Z,5.26
2022-11-28T23:36:43.096Z,5.29
2022-11-28T23:39:13.087Z,5.24
2022-11-28T23:41:41.211Z,5.24
2022-11-28T23:44:11.195Z,5.21
2022-11-28T23:46:40.246Z,5.17
2022-11-28T23:49:08.175Z,5.21
2022-11-28T23:51:36.567Z,5.25
2022-11-28T23:54:06.048Z,5.20
2022-11-28T23:56:36.761Z,5.25
2022-11-28T23:59:07.520Z,5.18
